Time;durP1;ratioP1;P1;durP2;ratioP2;P2;SDS_P1;SDS_P2;PMS_P1;PMS_P2;Temp;Humidity;BMP_temperature;BMP_pressure;BME280_temperature;BME280_humidity;BME280_pressure;Samples;Min_cycle;Max_cycle;Signal;HPM_P1;HPM_P2
2022/01/24 00:00:50;;;;;;;11.82;7.65;;;4.00;99.90;;;;;;5074790;28;20669;-67
2022/01/24 00:03:18;;;;;;;10.15;7.53;;;3.90;99.90;;;;;;5075010;28;20223;-67
2022/01/24 00:05:45;;;;;;;12.05;7.70;;;3.90;99.90;;;;;;5075479;28;20293;-67
2022/01/24 00:08:12;;;;;;;13.07;8.25;;;3.80;99.90;;;;;;5074843;28;20656;-67
2022/01/24 00:10:40;;;;;;;12.05;8.35;;;3.70;99.90;;;;;;5074931;28;20206;-67
2022/01/24 00:13:40;;;;;;;12.75;8.32;;;3.70;99.90;;;;;;5074749;28;20262;-67
2022/01/24 00:16:16;;;;;;;13.05;8.30;;;3.60;99.90;;;;;;5075169;28;20206;-67
2022/01/24 00:26:58;;;;;;;13.30;8.55;;;3.40;99.90;;;;;;5074588;28;20197;-67
2022/01/24 00:29:27;;;;;;;14.70;9.00;;;3.40;99.90;;;;;;5074650;28;20199;-67
2022/01/24 00:31:55;;;;;;;12.32;7.68;;;3.40;99.90;;;;;;5074723;28;20199;-67
2022/01/24 00:34:24;;;;;;;10.40;7.72;;;3.30;99.90;;;;;;5074698;28;20249;-67
2022/01/24 00:36:52;;;;;;;14.32;9.05;;;3.40;99.90;;;;;;5074841;28;20206;-67
2022/01/24 00:39:19;;;;;;;13.98;9.20;;;3.40;99.90;;;;;;5073910;28;20688;-67
2022/01/24 00:41:55;;;;;;;13.80;8.35;;;3.40;99.90;;;;;;5074286;28;20289;-67
2022/01/24 00:47:11;;;;;;;11.93;8.10;;;3.40;99.90;;;;;;5063845;28;20668;-67
2022/01/24 00:49:54;;;;;;;13.13;8.75;;;3.30;99.90;;;;;;5074152;28;20195;-67
2022/01/24 00:55:07;;;;;;;11.80;8.65;;;3.40;99.90;;;;;;5074741;28;20206;-67
2022/01/24 00:57:34;;;;;;;11.82;8.82;;;3.40;99.90;;;;;;5074604;28;20657;-67
2022/01/24 01:00:01;;;;;;;13.10;9.00;;;3.40;99.90;;;;;;5074176;28;20209;-67
2022/01/24 01:02:28;;;;;;;12.50;8.20;;;3.30;99.90;;;;;;5074095;28;20210;-67
2022/01/24 01:05:17;;;;;;;16.65;9.25;;;3.20;99.90;;;;;;5074400;28;20576;-67
2022/01/24 01:07:55;;;;;;;13.63;8.70;;;3.20;99.90;;;;;;5074091;28;20206;-67
2022/01/24 01:18:49;;;;;;;13.20;8.90;;;3.20;99.90;;;;;;5073823;28;20272;-67
2022/01/24 01:21:17;;;;;;;16.50;10.73;;;3.10;99.90;;;;;;5073931;28;20210;-67
2022/01/24 01:23:49;;;;;;;13.23;9.55;;;3.00;99.90;;;;;;5073732;28;20718;-67
2022/01/24 01:26:24;;;;;;;13.13;9.60;;;3.10;99.90;;;;;;5074295;28;20617;-67
2022/01/24 01:28:56;;;;;;;13.48;10.05;;;3.10;99.90;;;;;;5074433;28;20388;-67
2022/01/24 01:31:34;;;;;;;12.55;9.45;;;3.10;99.90;;;;;;5073985;28;20518;-67
2022/01/24 01:34:09;;;;;;;15.27;11.35;;;3.10;99.90;;;;;;5074294;28;20322;-66
2022/01/24 01:37:02;;;;;;;15.15;10.00;;;3.10;99.90;;;;;;5074296;28;20207;-67
2022/01/24 01:53:47;;;;;;;13.73;9.73;;;3.00;99.90;;;;;;5073954;28;20293;-67
2022/01/24 01:56:14;;;;;;;14.00;9.75;;;2.90;99.90;;;;;;5074763;28;20215;-67
2022/01/24 01:58:40;;;;;;;13.52;9.90;;;2.90;99.90;;;;;;5074532;28;20233;-67
2022/01/24 02:01:07;;;;;;;13.57;10.90;;;2.90;99.90;;;;;;5073858;28;20199;-67
2022/01/24 02:03:34;;;;;;;15.35;10.43;;;2.80;99.90;;;;;;5073708;28;20223;-67
2022/01/24 02:06:01;;;;;;;15.95;11.07;;;2.80;99.90;;;;;;5077852;28;20230;-67
2022/01/24 02:08:32;;;;;;;16.30;10.77;;;2.70;99.90;;;;;;5077453;28;20209;-67
2022/01/24 02:10:59;;;;;;;18.40;10.45;;;2.80;99.90;;;;;;5077271;28;20735;-67
2022/01/24 02:13:27;;;;;;;14.07;10.50;;;2.80;99.90;;;;;;5077218;28;20594;-67
2022/01/24 02:16:04;;;;;;;14.45;10.90;;;2.80;99.90;;;;;;5077783;28;20552;-67
2022/01/24 02:18:36;;;;;;;15.10;10.50;;;2.70;99.90;;;;;;5077603;28;20333;-67
2022/01/24 02:21:24;;;;;;;16.52;11.40;;;2.70;99.90;;;;;;5077073;28;20614;-67
2022/01/24 02:23:52;;;;;;;15.20;11.00;;;2.60;99.90;;;;;;5077352;28;20280;-67
2022/01/24 02:26:22;;;;;;;16.10;11.65;;;2.60;99.90;;;;;;5077225;28;20293;-67
2022/01/24 02:29:01;;;;;;;15.13;11.00;;;2.60;99.90;;;;;;5077150;28;20290;-67
2022/01/24 02:31:41;;;;;;;16.48;11.63;;;2.70;99.90;;;;;;5076844;28;20569;-67
2022/01/24 02:34:42;;;;;;;15.32;11.05;;;2.60;99.90;;;;;;5077088;28;20218;-67
2022/01/24 02:37:11;;;;;;;16.08;11.73;;;2.50;99.90;;;;;;5073895;28;20297;-67
2022/01/24 02:53:15;;;;;;;14.90;10.73;;;2.40;99.90;;;;;;5063831;28;20684;-67
2022/01/24 02:55:54;;;;;;;14.35;12.57;;;2.40;99.90;;;;;;5076848;28;20202;-67
2022/01/24 02:58:24;;;;;;;16.85;12.60;;;2.40;99.90;;;;;;5077044;28;20206;-67
2022/01/24 03:00:52;;;;;;;17.58;12.35;;;2.40;99.90;;;;;;5076141;28;20206;-67
2022/01/24 03:03:19;;;;;;;18.17;12.55;;;2.40;99.90;;;;;;5076608;28;20223;-67
2022/01/24 03:05:46;;;;;;;17.13;12.73;;;2.40;99.90;;;;;;5076420;28;20657;-67
2022/01/24 03:08:14;;;;;;;19.83;12.32;;;2.30;99.90;;;;;;5076139;28;20202;-67
2022/01/24 03:10:45;;;;;;;16.95;10.90;;;2.30;99.90;;;;;;5076289;28;20253;-67
2022/01/24 03:13:30;;;;;;;16.02;11.38;;;2.30;99.90;;;;;;5076785;28;20233;-67
2022/01/24 03:15:59;;;;;;;17.08;10.75;;;2.30;99.90;;;;;;5076456;28;20256;-67
2022/01/24 03:18:27;;;;;;;16.05;11.23;;;2.20;99.90;;;;;;5076317;28;20210;-67
2022/01/24 03:20:54;;;;;;;17.67;11.43;;;2.30;99.90;;;;;;5075867;28;20270;-67
2022/01/24 03:23:23;;;;;;;18.70;11.60;;;2.30;99.90;;;;;;5075970;28;20318;-67
2022/01/24 03:25:52;;;;;;;16.70;11.40;;;2.30;99.90;;;;;;5075751;28;20207;-67
2022/01/24 03:28:19;;;;;;;18.17;12.93;;;2.30;99.90;;;;;;5076116;28;20241;-67
2022/01/24 03:30:46;;;;;;;16.73;11.63;;;2.30;99.90;;;;;;5075896;28;20568;-67
2022/01/24 03:33:13;;;;;;;18.02;12.35;;;2.20;99.90;;;;;;5075866;28;20222;-67
2022/01/24 03:35:41;;;;;;;21.20;12.50;;;2.30;99.90;;;;;;5076307;28;20556;-67
2022/01/24 03:38:08;;;;;;;18.52;12.20;;;2.30;99.90;;;;;;5076407;28;20290;-67
2022/01/24 03:40:34;;;;;;;17.50;12.32;;;2.30;99.90;;;;;;5075734;28;20230;-67
2022/01/24 03:43:03;;;;;;;20.70;13.40;;;2.40;99.90;;;;;;5075898;28;20229;-67
2022/01/24 03:48:25;;;;;;;15.00;11.93;;;2.50;99.90;;;;;;5075656;28;20195;-67
2022/01/24 03:50:52;;;;;;;17.65;12.25;;;2.50;99.90;;;;;;5075351;28;20297;-67
2022/01/24 03:53:19;;;;;;;16.05;11.77;;;2.50;99.90;;;;;;5074846;28;20218;-66
2022/01/24 03:55:46;;;;;;;19.67;13.10;;;2.40;99.90;;;;;;5075170;28;20214;-67
2022/01/24 03:58:14;;;;;;;16.95;12.30;;;2.40;99.90;;;;;;5075213;28;20202;-67
2022/01/24 04:00:41;;;;;;;20.15;12.57;;;2.40;99.90;;;;;;5074907;28;20227;-67
2022/01/24 04:03:08;;;;;;;15.90;11.15;;;2.30;99.90;;;;;;5075266;28;20593;-67
2022/01/24 04:05:35;;;;;;;16.30;12.63;;;2.30;99.90;;;;;;5074989;28;20557;-67
2022/01/24 04:08:02;;;;;;;19.23;13.13;;;2.30;99.90;;;;;;5075197;28;20203;-67
2022/01/24 04:10:39;;;;;;;17.73;12.15;;;2.30;99.90;;;;;;5074609;28;20202;-67
2022/01/24 04:13:09;;;;;;;20.48;12.15;;;2.30;99.90;;;;;;5075043;28;20226;-67
2022/01/24 04:15:46;;;;;;;17.20;12.63;;;2.30;99.90;;;;;;5075660;28;20245;-67
2022/01/24 04:18:31;;;;;;;18.50;12.80;;;2.30;99.90;;;;;;5075154;28;20214;-67
2022/01/24 04:23:46;;;;;;;18.10;13.07;;;2.40;99.90;;;;;;5075418;28;20221;-67
2022/01/24 04:26:13;;;;;;;16.38;12.65;;;2.40;99.90;;;;;;5075552;28;20191;-67
2022/01/24 04:28:40;;;;;;;16.95;12.13;;;2.40;99.90;;;;;;5074945;28;20213;-67
2022/01/24 04:31:08;;;;;;;16.23;12.10;;;2.40;99.90;;;;;;5074856;28;20206;-67
2022/01/24 04:33:35;;;;;;;22.05;13.05;;;2.40;99.90;;;;;;5074777;28;20229;-67
2022/01/24 04:36:02;;;;;;;17.52;12.40;;;2.30;99.90;;;;;;5075104;28;20206;-67
2022/01/24 04:38:29;;;;;;;20.05;13.55;;;2.30;99.90;;;;;;5075152;28;20206;-67
2022/01/24 04:40:59;;;;;;;21.30;13.35;;;2.30;99.90;;;;;;5074673;28;20214;-67
2022/01/24 04:43:35;;;;;;;18.80;12.52;;;2.30;99.90;;;;;;5074589;28;20230;-67
2022/01/24 04:46:11;;;;;;;17.38;13.25;;;2.30;99.90;;;;;;5074824;28;20197;-66
2022/01/24 04:51:37;;;;;;;17.83;12.65;;;2.20;99.90;;;;;;5074327;28;20215;-66
2022/01/24 04:54:36;;;;;;;19.88;13.05;;;2.20;99.90;;;;;;5074339;28;20228;-66
2022/01/24 04:57:02;;;;;;;15.88;12.70;;;2.20;99.90;;;;;;5074305;28;20225;-66
2022/01/24 04:59:29;;;;;;;20.65;13.43;;;2.20;99.90;;;;;;5074360;28;20219;-66
2022/01/24 05:01:55;;;;;;;17.58;12.98;;;2.20;99.90;;;;;;5073716;28;20204;-67
2022/01/24 05:04:24;;;;;;;15.93;13.00;;;2.20;99.90;;;;;;5074101;28;20257;-67
2022/01/24 05:06:51;;;;;;;17.05;12.40;;;2.10;99.90;;;;;;5074407;28;20225;-67
2022/01/24 05:09:19;;;;;;;21.60;12.88;;;2.10;99.90;;;;;;5074490;28;20209;-67
2022/01/24 05:11:51;;;;;;;17.65;13.20;;;2.10;99.90;;;;;;5074533;28;20575;-67
2022/01/24 05:25:17;;;;;;;21.92;13.77;;;2.00;99.90;;;;;;5073818;28;20178;-67
2022/01/24 05:27:45;;;;;;;18.17;13.57;;;1.90;99.90;;;;;;5073270;28;20202;-66
2022/01/24 05:30:12;;;;;;;18.17;13.77;;;1.90;99.90;;;;;;5073201;28;20198;-67
2022/01/24 05:32:39;;;;;;;20.02;13.50;;;1.90;99.90;;;;;;5073693;28;20209;-67
2022/01/24 05:35:08;;;;;;;22.00;13.85;;;1.90;99.90;;;;;;5073376;28;20293;-67
2022/01/24 05:37:34;;;;;;;24.00;15.07;;;1.90;99.90;;;;;;5073716;28;20199;-67
2022/01/24 05:40:01;;;;;;;21.25;14.80;;;2.00;99.90;;;;;;5076105;28;20317;-67
2022/01/24 05:42:28;;;;;;;20.25;14.55;;;2.00;99.90;;;;;;5077914;28;20701;-67
2022/01/24 05:44:55;;;;;;;21.92;13.82;;;1.90;99.90;;;;;;5077860;28;20305;-67
2022/01/24 05:47:22;;;;;;;22.02;14.00;;;2.00;99.90;;;;;;5077887;28;20301;-67
2022/01/24 05:49:49;;;;;;;20.73;14.23;;;2.00;99.90;;;;;;5077419;28;20556;-66
2022/01/24 05:52:17;;;;;;;18.77;13.88;;;2.00;99.90;;;;;;5077597;28;20202;-67
2022/01/24 05:54:44;;;;;;;22.02;15.48;;;2.00;99.90;;;;;;5077828;28;20222;-66
2022/01/24 05:57:11;;;;;;;27.30;18.92;;;2.00;99.90;;;;;;5077595;28;20309;-67
2022/01/24 05:59:38;;;;;;;25.52;18.35;;;1.90;99.90;;;;;;5077506;28;20730;-67
2022/01/24 06:02:06;;;;;;;25.50;15.75;;;1.90;99.90;;;;;;5077126;28;20203;-67
2022/01/24 06:04:33;;;;;;;22.75;14.63;;;1.90;99.90;;;;;;5077482;28;20225;-67
2022/01/24 06:06:59;;;;;;;18.73;13.90;;;1.80;99.90;;;;;;5077381;28;20207;-67
2022/01/24 06:09:28;;;;;;;19.05;13.85;;;1.80;99.90;;;;;;5077326;28;20645;-67
2022/01/24 06:11:54;;;;;;;19.10;14.73;;;1.80;99.90;;;;;;5077236;28;20199;-67
2022/01/24 06:14:21;;;;;;;22.70;14.98;;;1.80;99.90;;;;;;5077651;28;20225;-67
2022/01/24 06:16:48;;;;;;;23.55;14.90;;;1.80;99.90;;;;;;5077052;28;20238;-67
2022/01/24 06:19:15;;;;;;;22.55;15.90;;;1.80;99.90;;;;;;5077223;28;20564;-67
2022/01/24 06:21:44;;;;;;;21.63;14.48;;;1.80;99.90;;;;;;5077097;28;20297;-67
2022/01/24 06:24:11;;;;;;;19.35;14.50;;;1.80;99.90;;;;;;5076929;28;20277;-67
2022/01/24 06:26:40;;;;;;;22.05;15.23;;;1.90;99.90;;;;;;5077082;28;20293;-67
2022/01/24 06:29:06;;;;;;;23.60;16.02;;;2.00;99.90;;;;;;5076960;28;20622;-67
2022/01/24 06:31:33;;;;;;;24.42;16.80;;;2.00;99.90;;;;;;5076744;28;20293;-67
2022/01/24 06:34:00;;;;;;;22.15;15.73;;;2.10;99.90;;;;;;5076870;28;20226;-67
2022/01/24 06:36:27;;;;;;;20.42;14.75;;;2.20;99.90;;;;;;5077176;28;20209;-67
2022/01/24 06:38:54;;;;;;;24.63;16.90;;;2.30;99.90;;;;;;5077409;28;20606;-67
2022/01/24 06:41:25;;;;;;;20.25;15.20;;;2.40;99.90;;;;;;5076447;28;20218;-67
2022/01/24 06:43:54;;;;;;;22.55;16.02;;;2.40;99.90;;;;;;5076903;28;20223;-67
2022/01/24 06:46:20;;;;;;;22.98;15.07;;;2.50;99.90;;;;;;5076925;28;20300;-67
2022/01/24 06:48:47;;;;;;;17.58;14.10;;;2.70;99.90;;;;;;5076805;28;20298;-67
2022/01/24 06:51:14;;;;;;;21.70;14.95;;;2.80;99.90;;;;;;5076370;28;20209;-67
2022/01/24 06:53:42;;;;;;;17.52;13.48;;;2.70;99.90;;;;;;5077129;28;20330;-67
2022/01/24 06:56:09;;;;;;;19.08;13.88;;;2.70;99.90;;;;;;5077088;28;20688;-67
2022/01/24 06:58:37;;;;;;;21.08;14.05;;;2.70;99.90;;;;;;5076645;28;20203;-67
2022/01/24 07:01:05;;;;;;;19.05;14.23;;;2.70;99.90;;;;;;5076360;28;20669;-67
2022/01/24 07:03:32;;;;;;;19.83;14.05;;;2.60;99.90;;;;;;5076550;28;20222;-67
2022/01/24 07:05:59;;;;;;;20.42;14.30;;;2.60;99.90;;;;;;5076019;28;20297;-67
2022/01/24 07:08:26;;;;;;;20.98;13.85;;;2.70;99.90;;;;;;5076740;28;20209;-67
2022/01/24 07:10:54;;;;;;;20.10;14.07;;;2.80;99.90;;;;;;5075901;28;20202;-67
2022/01/24 07:13:21;;;;;;;20.88;14.93;;;2.90;99.90;;;;;;5076510;28;20229;-67
2022/01/24 07:15:52;;;;;;;22.55;15.85;;;3.00;99.90;;;;;;5076442;28;20225;-67
2022/01/24 07:21:19;;;;;;;21.35;14.80;;;2.80;99.90;;;;;;5014019;28;20228;-67
2022/01/24 07:23:45;;;;;;;18.02;14.52;;;2.70;99.90;;;;;;5014079;28;20231;-67
2022/01/24 07:26:12;;;;;;;22.80;15.80;;;2.60;99.90;;;;;;5041372;28;20206;-67
2022/01/24 07:28:39;;;;;;;20.30;14.25;;;2.70;99.90;;;;;;5076202;28;20210;-67
2022/01/24 07:31:06;;;;;;;23.33;15.20;;;2.80;99.90;;;;;;5075691;28;20564;-67
2022/01/24 07:33:35;;;;;;;23.90;15.90;;;2.90;99.90;;;;;;5076543;28;20227;-67
2022/01/24 07:36:01;;;;;;;21.92;15.25;;;3.10;99.90;;;;;;5076441;28;20564;-67
2022/01/24 07:38:28;;;;;;;25.80;16.15;;;3.10;99.90;;;;;;5075927;28;20293;-67
2022/01/24 07:40:56;;;;;;;22.30;15.75;;;3.20;99.90;;;;;;5076055;28;20227;-67
2022/01/24 07:43:23;;;;;;;22.77;16.42;;;3.20;99.90;;;;;;5076009;28;20223;-67
2022/01/24 07:45:50;;;;;;;26.27;18.85;;;3.20;99.90;;;;;;5076333;28;20229;-67
2022/01/24 07:48:18;;;;;;;29.58;19.45;;;3.10;99.90;;;;;;5075496;28;20203;-67
2022/01/24 07:50:47;;;;;;;31.00;19.85;;;3.10;99.90;;;;;;5075261;28;20645;-67
2022/01/24 07:53:15;;;;;;;32.70;21.20;;;2.90;99.90;;;;;;5074904;28;20317;-67
2022/01/24 07:55:43;;;;;;;26.52;18.52;;;2.80;99.90;;;;;;5075341;28;20670;-67
2022/01/24 07:58:11;;;;;;;30.27;20.30;;;2.70;99.90;;;;;;5075503;28;20206;-67
2022/01/24 08:00:38;;;;;;;25.70;18.67;;;2.70;99.90;;;;;;5074878;28;20219;-66
2022/01/24 08:03:06;;;;;;;28.27;18.83;;;2.60;99.90;;;;;;5073928;28;20713;-67
2022/01/24 08:05:33;;;;;;;30.52;18.98;;;2.60;99.90;;;;;;5074719;28;20202;-67
2022/01/24 08:08:02;;;;;;;28.10;19.35;;;2.70;99.90;;;;;;5075073;28;20545;-67
2022/01/24 08:10:28;;;;;;;30.98;19.40;;;2.80;99.90;;;;;;5074927;28;20205;-67
2022/01/24 08:12:55;;;;;;;29.25;18.08;;;2.90;99.90;;;;;;5075275;28;20199;-67
2022/01/24 08:15:24;;;;;;;23.23;16.48;;;3.00;99.90;;;;;;5075400;28;20667;-67
2022/01/24 08:17:51;;;;;;;24.30;17.67;;;3.10;99.90;;;;;;5074727;28;20619;-67
2022/01/24 08:20:18;;;;;;;25.55;17.00;;;3.10;99.90;;;;;;5074698;28;20226;-67
2022/01/24 08:22:45;;;;;;;30.45;18.45;;;3.00;99.90;;;;;;5074837;28;20206;-67
2022/01/24 08:25:15;;;;;;;25.65;17.10;;;3.10;99.90;;;;;;5074738;28;20199;-67
2022/01/24 08:27:42;;;;;;;26.38;16.63;;;3.10;99.90;;;;;;5075118;28;20530;-67
2022/01/24 08:30:12;;;;;;;23.42;17.40;;;3.10;99.90;;;;;;5074384;28;20567;-67
2022/01/24 08:32:39;;;;;;;26.05;17.10;;;3.20;99.90;;;;;;5075462;28;20439;-67
2022/01/24 08:35:08;;;;;;;24.35;18.40;;;3.20;99.90;;;;;;5074683;28;20223;-67
2022/01/24 08:37:36;;;;;;;27.30;19.17;;;3.30;99.90;;;;;;5075062;28;20257;-67
2022/01/24 08:40:05;;;;;;;24.30;17.25;;;3.40;99.90;;;;;;5074752;28;20199;-67
2022/01/24 08:42:37;;;;;;;27.75;18.10;;;3.30;99.90;;;;;;5074231;28;20316;-67
2022/01/24 08:47:49;;;;;;;25.70;18.17;;;3.40;99.90;;;;;;5074616;28;20277;-67
2022/01/24 08:50:20;;;;;;;23.65;18.73;;;3.70;99.90;;;;;;5074247;28;20297;-67
2022/01/24 08:52:47;;;;;;;25.00;18.02;;;3.80;99.90;;;;;;5074662;28;20203;-67
2022/01/24 08:55:14;;;;;;;23.20;17.70;;;3.90;99.90;;;;;;5074670;28;20203;-67
2022/01/24 08:57:42;;;;;;;26.48;18.70;;;3.90;99.90;;;;;;5073932;28;20744;-67
2022/01/24 09:00:10;;;;;;;25.88;19.25;;;3.90;99.90;;;;;;5073971;28;20207;-67
2022/01/24 09:02:36;;;;;;;31.13;19.27;;;4.10;99.90;;;;;;5074458;28;20199;-67
2022/01/24 09:05:04;;;;;;;27.48;18.73;;;4.20;99.90;;;;;;5074150;28;20262;-67
2022/01/24 09:07:31;;;;;;;29.15;19.77;;;4.40;99.90;;;;;;5074038;28;20249;-67
2022/01/24 09:09:58;;;;;;;26.60;19.50;;;4.40;99.90;;;;;;5074013;28;20289;-67
2022/01/24 09:12:25;;;;;;;29.92;19.23;;;4.40;99.90;;;;;;5073839;28;20297;-67
2022/01/24 09:14:53;;;;;;;26.30;18.83;;;4.50;99.90;;;;;;5074240;28;20314;-67
2022/01/24 09:17:20;;;;;;;28.98;20.00;;;4.50;99.90;;;;;;5073840;28;20206;-67
2022/01/24 09:19:47;;;;;;;28.48;20.50;;;4.50;99.90;;;;;;5074247;28;20203;-67
2022/01/24 09:22:14;;;;;;;32.53;22.67;;;4.20;99.90;;;;;;5074339;28;20313;-67
2022/01/24 09:24:41;;;;;;;32.65;21.38;;;3.80;99.90;;;;;;5074079;28;20223;-67
2022/01/24 09:27:08;;;;;;;31.02;22.63;;;3.70;99.90;;;;;;5074458;28;20209;-67
2022/01/24 09:29:35;;;;;;;31.73;22.38;;;3.50;99.90;;;;;;5074518;28;20199;-67
2022/01/24 09:32:04;;;;;;;35.95;22.48;;;3.50;99.90;;;;;;5074351;28;20206;-67
2022/01/24 09:34:31;;;;;;;39.60;23.05;;;3.60;99.90;;;;;;5073872;28;20249;-67
2022/01/24 09:36:57;;;;;;;41.42;23.45;;;3.60;99.90;;;;;;5074006;28;20225;-67
2022/01/24 09:39:24;;;;;;;37.05;24.30;;;3.50;99.90;;;;;;5073695;28;20293;-67
2022/01/24 09:41:52;;;;;;;33.45;23.48;;;3.50;99.90;;;;;;5073845;28;20322;-67
2022/01/24 09:44:19;;;;;;;34.45;21.83;;;3.60;99.90;;;;;;5074170;28;20222;-67
2022/01/24 09:46:46;;;;;;;38.88;23.88;;;3.60;99.90;;;;;;5064682;28;20239;-67
2022/01/24 09:49:14;;;;;;;33.85;22.80;;;3.50;99.90;;;;;;5058880;28;20208;-67
2022/01/24 09:51:44;;;;;;;31.77;22.33;;;3.70;99.90;;;;;;5052226;28;20195;-67
2022/01/24 09:54:12;;;;;;;31.60;22.10;;;3.80;99.90;;;;;;5052512;28;20227;-68
2022/01/24 09:56:39;;;;;;;32.85;20.15;;;3.90;99.90;;;;;;5052671;28;20588;-68
2022/01/24 09:59:06;;;;;;;32.80;20.10;;;4.00;99.90;;;;;;5052636;28;20203;-68
2022/01/24 10:01:33;;;;;;;30.52;20.63;;;4.10;99.90;;;;;;5051911;28;20764;-67
2022/01/24 10:04:09;;;;;;;28.90;20.33;;;4.10;99.90;;;;;;5052323;28;20231;-68
2022/01/24 10:07:00;;;;;;;31.00;20.35;;;4.10;99.90;;;;;;5052151;28;20826;-67
2022/01/24 10:09:29;;;;;;;29.65;19.90;;;4.20;99.90;;;;;;5052035;28;20294;-67
2022/01/24 10:12:12;;;;;;;28.23;18.75;;;4.20;99.90;;;;;;5051927;28;20217;-66
2022/01/24 10:17:24;;;;;;;30.67;19.33;;;4.10;99.90;;;;;;5052267;28;20337;-67
2022/01/24 10:19:51;;;;;;;26.25;17.85;;;4.20;99.90;;;;;;5052013;28;20254;-67
2022/01/24 10:22:24;;;;;;;28.50;19.33;;;4.20;99.90;;;;;;5051771;28;20220;-67
2022/01/24 10:24:54;;;;;;;26.80;17.80;;;4.10;99.90;;;;;;5052830;28;20223;-66
2022/01/24 10:27:24;;;;;;;24.25;17.90;;;4.10;99.90;;;;;;5055985;28;20208;-67
2022/01/24 10:29:54;;;;;;;22.33;16.33;;;4.10;99.90;;;;;;5055301;28;20204;-67
2022/01/24 10:32:38;;;;;;;27.85;18.80;;;4.20;99.90;;;;;;5055620;28;20294;-66
2022/01/24 10:35:24;;;;;;;25.10;16.42;;;4.30;99.90;;;;;;5055281;28;20223;-66
2022/01/24 10:37:54;;;;;;;24.08;16.15;;;4.40;99.90;;;;;;5055555;28;20299;-66
2022/01/24 10:40:45;;;;;;;24.48;17.13;;;4.30;99.90;;;;;;5055259;28;20214;-67
2022/01/24 10:43:21;;;;;;;21.50;15.18;;;4.30;99.90;;;;;;5055056;28;20219;-66
2022/01/24 10:45:49;;;;;;;21.33;15.85;;;4.40;99.90;;;;;;5055491;28;20225;-66
2022/01/24 10:48:25;;;;;;;20.40;15.77;;;4.60;99.90;;;;;;5055280;28;20246;-67
2022/01/24 10:51:05;;;;;;;20.95;15.90;;;4.60;99.90;;;;;;5054555;28;20195;-67
2022/01/24 10:53:39;;;;;;;19.02;14.00;;;4.50;99.90;;;;;;5055174;28;20219;-67
2022/01/24 10:56:25;;;;;;;19.02;13.70;;;4.60;99.90;;;;;;5055598;28;20310;-66
2022/01/24 10:58:52;;;;;;;21.70;14.40;;;4.80;99.90;;;;;;5054408;28;20207;-66
2022/01/24 11:01:23;;;;;;;18.52;13.45;;;4.80;99.90;;;;;;5054962;28;20318;-66
2022/01/24 11:03:58;;;;;;;25.30;13.25;;;4.80;99.90;;;;;;5055029;28;20234;-67
2022/01/24 11:06:29;;;;;;;19.27;13.18;;;4.90;99.90;;;;;;5055172;28;20669;-66
2022/01/24 11:09:15;;;;;;;17.10;11.98;;;4.90;99.90;;;;;;5055088;28;20286;-66
2022/01/24 11:11:42;;;;;;;16.00;11.30;;;4.90;99.90;;;;;;5054490;28;20349;-66
2022/01/24 11:14:13;;;;;;;16.35;11.50;;;5.00;99.90;;;;;;5054645;28;20228;-66
2022/01/24 11:16:40;;;;;;;18.08;13.13;;;5.20;99.90;;;;;;5054416;28;20609;-66
2022/01/24 11:19:14;;;;;;;17.60;12.15;;;5.30;99.90;;;;;;5054375;28;20235;-66
2022/01/24 11:21:43;;;;;;;17.95;12.48;;;5.30;99.90;;;;;;5054014;28;20222;-65
2022/01/24 11:24:17;;;;;;;16.13;11.18;;;5.40;99.90;;;;;;5054774;28;20232;-66
2022/01/24 11:26:46;;;;;;;13.65;10.63;;;5.60;99.90;;;;;;5055226;28;20210;-66
2022/01/24 11:29:13;;;;;;;11.77;9.43;;;5.80;99.90;;;;;;5054614;28;20210;-65
2022/01/24 11:31:44;;;;;;;13.30;8.93;;;6.00;99.90;;;;;;5054198;28;20687;-66
2022/01/24 11:34:20;;;;;;;9.35;7.90;;;6.30;99.90;;;;;;5054377;28;20416;-66
2022/01/24 11:36:47;;;;;;;10.40;8.25;;;6.60;99.90;;;;;;5054806;28;20577;-66
2022/01/24 11:39:21;;;;;;;11.55;9.35;;;6.70;99.90;;;;;;5054328;28;20279;-65
2022/01/24 11:41:50;;;;;;;10.90;9.35;;;6.80;99.90;;;;;;5053942;28;20258;-65
2022/01/24 11:44:19;;;;;;;13.82;10.52;;;6.80;99.90;;;;;;5054570;28;20308;-66
2022/01/24 11:46:48;;;;;;;14.15;10.95;;;6.70;99.90;;;;;;5054505;28;20299;-65
2022/01/24 11:49:18;;;;;;;13.35;10.38;;;6.60;99.90;;;;;;5053834;28;20208;-65
2022/01/24 11:51:47;;;;;;;13.02;8.70;;;6.70;99.90;;;;;;5053325;28;20670;-66
2022/01/24 11:54:42;;;;;;;8.43;7.53;;;6.60;99.90;;;;;;5054055;28;20219;-66
2022/01/24 11:57:19;;;;;;;14.18;10.30;;;6.60;99.90;;;;;;5055229;28;20210;-67
2022/01/24 11:59:47;;;;;;;13.50;10.30;;;6.40;99.90;;;;;;5055337;28;20205;-67
2022/01/24 12:02:19;;;;;;;13.23;11.15;;;6.30;99.90;;;;;;5055528;28;20224;-67
2022/01/24 12:04:54;;;;;;;11.43;9.30;;;6.20;99.90;;;;;;5055301;28;20310;-66
2022/01/24 12:07:23;;;;;;;13.27;8.25;;;6.20;99.90;;;;;;5055408;28;20203;-67
2022/01/24 12:09:51;;;;;;;10.73;7.72;;;6.20;99.90;;;;;;5054806;28;20294;-67
2022/01/24 12:12:44;;;;;;;8.55;7.32;;;6.40;99.90;;;;;;5055145;28;20206;-67
2022/01/24 12:15:32;;;;;;;9.35;8.10;;;6.60;99.90;;;;;;5054855;28;20183;-67
2022/01/24 12:18:01;;;;;;;12.95;8.20;;;6.60;99.90;;;;;;5054734;28;20216;-67
2022/01/24 12:20:48;;;;;;;10.27;8.00;;;6.90;99.90;;;;;;5054800;28;20555;-67
2022/01/24 12:23:41;;;;;;;10.35;7.55;;;7.20;99.90;;;;;;5055121;28;20593;-67
2022/01/24 12:26:09;;;;;;;9.70;6.95;;;7.50;99.90;;;;;;5054898;28;20207;-67
2022/01/24 12:28:48;;;;;;;10.25;7.68;;;7.80;99.90;;;;;;5054391;28;20207;-67
2022/01/24 12:31:21;;;;;;;8.88;6.75;;;8.20;99.90;;;;;;5054355;28;20568;-67
2022/01/24 12:34:11;;;;;;;8.38;7.53;;;8.20;99.90;;;;;;5054440;28;20689;-66
2022/01/24 12:37:00;;;;;;;7.90;7.00;;;8.40;99.90;;;;;;5054833;28;20207;-67
2022/01/24 12:39:33;;;;;;;12.32;8.00;;;8.40;99.90;;;;;;5054290;28;20288;-67
2022/01/24 12:42:04;;;;;;;8.30;7.35;;;8.50;99.90;;;;;;5054697;28;20277;-67
2022/01/24 12:47:20;;;;;;;8.77;7.10;;;8.70;99.90;;;;;;5054007;28;20202;-67
2022/01/24 12:49:50;;;;;;;10.70;7.00;;;8.70;99.90;;;;;;5054266;28;20277;-67
2022/01/24 12:52:19;;;;;;;9.45;7.15;;;8.40;99.90;;;;;;5054209;28;20238;-67
2022/01/24 12:54:49;;;;;;;7.93;6.55;;;8.70;99.90;;;;;;5053549;28;20727;-67
2022/01/24 12:57:18;;;;;;;9.80;6.97;;;8.50;99.90;;;;;;5054154;28;20199;-67
2022/01/24 12:59:55;;;;;;;7.70;6.20;;;8.40;99.90;;;;;;5053982;28;20204;-66
2022/01/24 13:02:27;;;;;;;6.82;6.10;;;8.30;99.90;;;;;;5054034;28;20217;-67
2022/01/24 13:05:01;;;;;;;9.80;6.93;;;8.60;99.90;;;;;;5053813;28;20253;-67
2022/01/24 13:07:30;;;;;;;7.15;6.00;;;8.60;99.90;;;;;;5054067;28;20261;-67
2022/01/24 13:10:04;;;;;;;7.57;6.75;;;8.80;99.90;;;;;;5053730;28;20619;-67
2022/01/24 13:12:31;;;;;;;8.07;6.05;;;9.30;99.90;;;;;;5053940;28;20520;-67
2022/01/24 13:15:04;;;;;;;6.10;5.50;;;9.80;99.90;;;;;;5053979;28;20251;-67
2022/01/24 13:20:52;;;;;;;7.97;5.70;;;9.50;98.90;;;;;;5053480;28;20202;-67
2022/01/24 13:23:22;;;;;;;8.55;6.03;;;9.20;99.00;;;;;;5053954;28;20223;-67
2022/01/24 13:25:50;;;;;;;5.95;5.20;;;8.80;99.80;;;;;;5053426;28;20191;-67
2022/01/24 13:28:19;;;;;;;8.50;5.82;;;8.70;99.90;;;;;;5053475;28;20207;-66
2022/01/24 13:30:50;;;;;;;7.45;5.70;;;8.70;99.90;;;;;;5053591;28;20230;-67
2022/01/24 13:33:20;;;;;;;6.70;5.57;;;8.70;99.90;;;;;;5053711;28;20220;-67
2022/01/24 13:35:48;;;;;;;9.88;6.10;;;8.70;99.90;;;;;;5053955;28;20239;-67
2022/01/24 13:38:17;;;;;;;9.25;5.80;;;8.50;99.90;;;;;;5053964;28;20290;-68
2022/01/24 13:40:53;;;;;;;9.13;6.05;;;8.50;99.90;;;;;;5053482;28;20203;-67
2022/01/24 13:43:40;;;;;;;6.95;5.78;;;8.60;99.90;;;;;;5053247;28;20231;-67
2022/01/24 13:46:11;;;;;;;6.93;5.32;;;8.60;99.90;;;;;;5054223;28;20188;-67
2022/01/24 13:48:44;;;;;;;7.45;5.70;;;8.40;99.90;;;;;;5053840;28;20205;-67
2022/01/24 13:51:13;;;;;;;5.88;4.95;;;8.20;99.90;;;;;;5053220;28;20204;-67
2022/01/24 13:53:43;;;;;;;7.65;5.47;;;8.00;99.90;;;;;;5053847;28;20574;-67
2022/01/24 13:56:22;;;;;;;6.03;5.43;;;7.90;99.90;;;;;;5053381;28;20203;-67
2022/01/24 13:59:15;;;;;;;6.63;5.22;;;7.90;99.90;;;;;;5053802;28;20207;-67
2022/01/24 14:01:59;;;;;;;7.82;5.75;;;8.00;99.90;;;;;;5056923;28;20203;-67
2022/01/24 14:04:31;;;;;;;7.38;5.05;;;8.00;99.90;;;;;;5057640;28;20231;-67
2022/01/24 14:07:00;;;;;;;8.18;4.75;;;8.00;99.90;;;;;;5057249;28;20203;-67
2022/01/24 14:09:35;;;;;;;6.60;5.85;;;8.10;99.90;;;;;;5057506;28;20291;-67
2022/01/24 14:12:03;;;;;;;8.30;5.00;;;8.00;99.90;;;;;;5056885;28;20203;-67
2022/01/24 14:14:39;;;;;;;6.32;5.00;;;7.90;99.90;;;;;;5057066;28;20227;-67
2022/01/24 14:17:21;;;;;;;8.73;5.45;;;7.90;99.90;;;;;;5056931;28;20694;-67
2022/01/24 14:19:56;;;;;;;6.45;5.30;;;7.90;99.90;;;;;;5057116;28;20204;-67
2022/01/24 14:22:24;;;;;;;6.55;4.93;;;7.90;99.90;;;;;;5056975;28;20230;-67